Time;durP1;ratioP1;P1;durP2;ratioP2;P2;SDS_P1;SDS_P2;PMS_P1;PMS_P2;Temp;Humidity;BMP_temperature;BMP_pressure;BME280_temperature;BME280_humidity;BME280_pressure;Samples;Min_cycle;Max_cycle;Signal;HPM_P1;HPM_P2
2022/03/27 00:02:07;;;;;;;10.30;5.10;;;;;;;5.86;97.69;102470.21;105710;1270;60535;-72
2022/03/27 00:04:34;;;;;;;10.10;6.40;;;;;;;5.82;97.53;102465.41;105749;1271;64022;-71
2022/03/27 00:07:01;;;;;;;11.30;6.40;;;;;;;5.78;97.10;102464.10;105529;1271;60956;-73
2022/03/27 00:09:27;;;;;;;9.30;5.00;;;;;;;5.73;97.42;102463.50;105522;1268;74071;-73
2022/03/27 00:11:54;;;;;;;8.50;5.20;;;;;;;5.67;97.50;102457.80;105537;1271;71232;-74
2022/03/27 00:14:21;;;;;;;8.80;5.50;;;;;;;5.62;97.30;102466.50;105475;1271;60911;-72
2022/03/27 00:16:47;;;;;;;13.10;6.80;;;;;;;5.56;97.37;102466.74;105472;1271;62291;-71
2022/03/27 00:19:14;;;;;;;10.40;6.30;;;;;;;5.50;97.57;102467.63;105356;1271;61612;-71
2022/03/27 00:21:42;;;;;;;11.90;6.50;;;;;;;5.45;97.48;102468.66;105548;1271;74273;-71
2022/03/27 00:24:09;;;;;;;11.80;6.30;;;;;;;5.41;97.65;102467.02;105439;1271;71239;-71
2022/03/27 00:26:39;;;;;;;10.10;5.80;;;;;;;5.36;97.90;102468.02;105427;1271;74588;-74
2022/03/27 00:29:06;;;;;;;11.90;6.70;;;;;;;5.31;98.04;102470.06;105389;1269;62600;-74
2022/03/27 00:31:37;;;;;;;13.70;6.40;;;;;;;5.26;97.96;102468.60;105367;1271;60549;-72
2022/03/27 00:34:05;;;;;;;13.40;7.40;;;;;;;5.21;97.77;102470.71;105352;1271;72754;-73
2022/03/27 00:36:32;;;;;;;13.90;6.80;;;;;;;5.16;97.77;102471.73;105346;1270;71023;-73
2022/03/27 00:38:59;;;;;;;12.10;7.20;;;;;;;5.12;98.17;102474.10;105307;1271;74091;-72
2022/03/27 00:41:26;;;;;;;9.30;6.50;;;;;;;5.07;98.29;102467.91;105310;1271;61550;-73
2022/03/27 00:43:53;;;;;;;14.40;7.30;;;;;;;5.02;98.60;102465.41;105340;1271;60555;-71
2022/03/27 00:46:19;;;;;;;13.80;8.00;;;;;;;4.99;98.45;102471.55;105339;1271;75385;-71
2022/03/27 00:48:48;;;;;;;13.50;8.10;;;;;;;4.95;98.75;102469.34;105450;1271;71391;-74
2022/03/27 00:51:15;;;;;;;12.00;6.80;;;;;;;4.91;98.80;102472.20;105326;1274;73977;-71
2022/03/27 00:53:42;;;;;;;16.00;8.10;;;;;;;4.87;98.90;102468.21;105368;1271;61196;-71
2022/03/27 00:56:09;;;;;;;12.20;7.80;;;;;;;4.85;99.40;102472.73;105279;1271;59802;-70
2022/03/27 00:58:35;;;;;;;15.30;8.00;;;;;;;4.85;99.56;102475.55;105371;1271;74104;-72
2022/03/27 01:01:05;;;;;;;13.30;6.80;;;;;;;4.85;99.87;102475.36;105581;1271;72393;-73
2022/03/27 01:03:33;;;;;;;12.70;7.70;;;;;;;4.87;100.00;102471.05;105359;1271;73354;-70
2022/03/27 01:06:00;;;;;;;16.80;9.20;;;;;;;4.91;100.00;102468.38;105459;1271;62214;-72
2022/03/27 01:11:21;;;;;;;14.90;7.50;;;;;;;5.00;100.00;102462.21;105258;1271;76125;-71
2022/03/27 01:13:52;;;;;;;13.50;8.20;;;;;;;5.04;100.00;102465.83;105206;1271;71580;-72
2022/03/27 01:16:47;;;;;;;11.20;6.90;;;;;;;5.08;100.00;102461.19;105408;1269;73903;-72
2022/03/27 01:19:15;;;;;;;13.40;8.10;;;;;;;5.11;100.00;102451.66;105443;1271;61565;-70
2022/03/27 01:21:45;;;;;;;14.50;8.10;;;;;;;5.16;100.00;102453.46;105612;1271;60461;-73
2022/03/27 01:24:13;;;;;;;14.80;8.30;;;;;;;5.21;100.00;102456.16;105328;1271;74151;-72
2022/03/27 01:26:40;;;;;;;13.00;7.50;;;;;;;5.25;100.00;102451.19;105516;1271;72019;-73
2022/03/27 01:29:07;;;;;;;11.90;7.20;;;;;;;5.28;100.00;102449.55;105340;1271;72875;-71
2022/03/27 01:31:35;;;;;;;14.00;6.70;;;;;;;5.32;100.00;102446.68;105361;1271;61383;-72
2022/03/27 01:34:03;;;;;;;10.20;6.50;;;;;;;5.36;99.97;102448.02;105364;1271;60567;-74
2022/03/27 01:36:35;;;;;;;10.30;6.20;;;;;;;5.39;100.00;102448.17;105369;1271;73660;-72
2022/03/27 01:39:08;;;;;;;14.60;7.30;;;;;;;5.42;99.94;102448.30;105389;1271;71553;-72
2022/03/27 01:41:37;;;;;;;16.50;7.50;;;;;;;5.46;100.00;102445.08;105229;1271;73989;-72
2022/03/27 01:44:08;;;;;;;8.40;5.70;;;;;;;5.49;99.86;102441.05;105415;1271;62750;-72
2022/03/27 01:46:38;;;;;;;10.60;6.30;;;;;;;5.52;100.00;102442.60;105298;1271;60608;-72
2022/03/27 01:49:07;;;;;;;9.90;6.30;;;;;;;5.55;100.00;102442.60;105501;1271;75198;-70
2022/03/27 01:51:36;;;;;;;11.70;7.80;;;;;;;5.57;100.00;102441.77;105517;1270;71414;-72
2022/03/27 01:54:03;;;;;;;11.70;6.40;;;;;;;5.60;99.96;102447.88;105280;1271;72965;-75
2022/03/27 01:56:30;;;;;;;13.50;6.80;;;;;;;5.62;99.99;102443.00;105296;1271;62199;-71
2022/03/27 01:58:57;;;;;;;11.10;6.90;;;;;;;5.64;99.97;102441.83;105501;1271;61998;-70
2022/03/27 02:01:24;;;;;;;10.50;6.60;;;;;;;5.65;99.93;102442.77;105380;1271;74914;-71
2022/03/27 02:03:54;;;;;;;9.30;6.40;;;;;;;5.67;99.81;102441.77;105348;1271;71289;-70
2022/03/27 02:06:23;;;;;;;10.30;6.10;;;;;;;5.69;99.71;102444.14;105695;1271;74291;-72
2022/03/27 02:08:51;;;;;;;10.50;5.60;;;;;;;5.70;99.53;102447.23;105265;1271;62041;-72
2022/03/27 02:11:23;;;;;;;10.50;5.80;;;;;;;5.71;99.48;102450.86;105326;1271;60632;-71
2022/03/27 02:13:51;;;;;;;12.90;7.50;;;;;;;5.72;99.45;102449.37;105383;1271;75619;-72
2022/03/27 02:16:18;;;;;;;12.80;6.50;;;;;;;5.72;99.39;102453.58;105355;1271;70467;-74
2022/03/27 02:18:45;;;;;;;10.40;6.30;;;;;;;5.72;99.20;102454.45;105314;1271;74058;-71
2022/03/27 02:21:11;;;;;;;12.60;6.90;;;;;;;5.73;98.97;102456.67;105376;1271;62259;-72
2022/03/27 02:23:38;;;;;;;9.60;5.60;;;;;;;5.74;98.93;102456.96;105371;1271;60870;-73
2022/03/27 02:26:06;;;;;;;10.60;6.40;;;;;;;5.77;98.86;102460.13;105388;1271;75184;-76
2022/03/27 02:28:33;;;;;;;12.50;6.60;;;;;;;5.78;98.72;102456.17;105380;1271;71408;-72
2022/03/27 02:31:00;;;;;;;13.20;6.50;;;;;;;5.80;98.60;102455.20;105338;1271;74163;-72
2022/03/27 02:33:27;;;;;;;12.10;6.70;;;;;;;5.81;98.58;102454.97;105482;1271;61924;-74
2022/03/27 02:35:53;;;;;;;9.90;5.60;;;;;;;5.82;98.27;102455.24;105150;1271;60595;-70
2022/03/27 02:38:20;;;;;;;12.10;6.60;;;;;;;5.82;98.51;102452.93;105381;1270;74141;-71
2022/03/27 02:40:47;;;;;;;11.40;6.30;;;;;;;5.84;98.25;102454.05;105595;1271;72618;-71
2022/03/27 02:43:14;;;;;;;9.90;6.70;;;;;;;5.85;98.27;102455.73;105538;1271;72893;-72
2022/03/27 02:45:41;;;;;;;11.60;6.20;;;;;;;5.87;97.92;102458.24;105255;1271;60564;-72
2022/03/27 02:48:08;;;;;;;8.20;5.00;;;;;;;5.88;98.00;102458.52;105251;1271;61326;-72
2022/03/27 02:50:38;;;;;;;13.90;7.80;;;;;;;5.87;98.12;102457.52;105437;1270;74511;-71
2022/03/27 02:53:06;;;;;;;10.80;6.40;;;;;;;5.86;97.89;102459.70;105324;1271;71173;-74
2022/03/27 02:55:33;;;;;;;10.80;6.40;;;;;;;5.85;98.24;102459.96;105250;1271;74199;-75
2022/03/27 02:58:01;;;;;;;15.00;7.10;;;;;;;5.83;98.26;102457.64;105268;1271;62470;-72
2022/03/27 03:00:28;;;;;;;9.30;6.20;;;;;;;5.82;98.09;102457.34;105450;1271;61994;-72
2022/03/27 03:02:56;;;;;;;12.90;6.90;;;;;;;5.82;98.51;102458.77;105309;1271;73392;-74
2022/03/27 03:05:23;;;;;;;12.50;6.40;;;;;;;5.81;98.37;102460.56;105403;1271;72183;-73
2022/03/27 03:07:50;;;;;;;11.20;6.50;;;;;;;5.82;98.34;102459.30;105251;1271;72781;-71
2022/03/27 03:10:18;;;;;;;11.80;7.40;;;;;;;5.80;98.18;102457.83;105366;1271;61506;-72
2022/03/27 03:12:45;;;;;;;10.30;6.80;;;;;;;5.78;98.08;102454.80;105504;1271;60554;-74
2022/03/27 03:15:13;;;;;;;11.20;7.20;;;;;;;5.78;98.43;102454.08;105398;1271;75488;-75
2022/03/27 03:17:39;;;;;;;12.40;6.70;;;;;;;5.75;98.60;102444.27;105236;1271;72500;-73
2022/03/27 03:20:07;;;;;;;16.70;8.20;;;;;;;5.75;98.71;102446.90;105331;1271;73655;-73
2022/03/27 03:22:35;;;;;;;13.50;7.10;;;;;;;5.74;98.78;102448.55;105175;1271;61465;-76
2022/03/27 03:25:03;;;;;;;16.60;8.50;;;;;;;5.74;98.57;102448.39;105306;1271;60332;-73
2022/03/27 03:27:30;;;;;;;10.70;6.40;;;;;;;5.75;98.53;102448.15;105346;1271;74053;-72
2022/03/27 03:29:57;;;;;;;11.60;6.10;;;;;;;5.75;98.39;102444.08;105455;1271;72396;-73
2022/03/27 03:32:24;;;;;;;11.70;6.30;;;;;;;5.76;98.32;102442.66;105293;1271;74334;-71
2022/03/27 03:34:51;;;;;;;13.60;7.10;;;;;;;5.75;98.35;102439.04;105268;1271;61535;-72
2022/03/27 03:37:18;;;;;;;15.30;7.60;;;;;;;5.72;98.66;102437.27;105318;1271;60688;-73
2022/03/27 03:39:46;;;;;;;12.00;6.50;;;;;;;5.69;98.53;102432.17;105590;1270;74130;-72
2022/03/27 03:42:14;;;;;;;14.80;8.30;;;;;;;5.66;98.99;102432.05;105854;1270;72503;-72
2022/03/27 03:44:43;;;;;;;17.00;8.80;;;;;;;5.63;98.73;102430.29;105712;1271;72553;-73
2022/03/27 03:47:10;;;;;;;12.90;7.40;;;;;;;5.60;99.04;102431.55;105686;1271;61318;-73
2022/03/27 03:49:38;;;;;;;14.80;9.10;;;;;;;5.57;99.03;102435.79;105472;1271;60417;-75
2022/03/27 03:52:07;;;;;;;15.90;8.30;;;;;;;5.55;98.76;102434.30;105637;1271;74456;-72
2022/03/27 03:54:35;;;;;;;14.20;7.90;;;;;;;5.55;98.74;102435.56;105627;1271;71535;-74
2022/03/27 03:57:06;;;;;;;12.70;7.30;;;;;;;5.54;98.94;102435.29;105418;1270;72888;-73
2022/03/27 03:59:36;;;;;;;17.40;8.20;;;;;;;5.52;99.20;102431.92;105477;1271;62202;-73
2022/03/27 04:02:08;;;;;;;16.30;8.50;;;;;;;5.50;98.97;102434.45;105454;1271;60415;-74
2022/03/27 04:04:36;;;;;;;11.50;6.40;;;;;;;5.51;98.90;102437.60;105482;1271;75262;-71
2022/03/27 04:07:04;;;;;;;18.30;7.90;;;;;;;5.49;99.17;102434.56;105415;1271;72359;-74
2022/03/27 04:09:31;;;;;;;16.30;7.90;;;;;;;5.47;99.06;102436.77;105456;1271;73694;-72
2022/03/27 04:11:58;;;;;;;15.70;7.40;;;;;;;5.46;99.03;102440.51;105277;1271;60532;-71
2022/03/27 04:14:25;;;;;;;23.10;11.20;;;;;;;5.46;99.24;102442.45;105437;1271;60704;-73
2022/03/27 04:16:52;;;;;;;21.60;8.60;;;;;;;5.45;98.99;102444.09;105244;1271;74114;-73
2022/03/27 04:19:19;;;;;;;14.90;7.40;;;;;;;5.44;99.13;102442.79;105326;1271;72544;-72
2022/03/27 04:21:45;;;;;;;20.40;9.20;;;;;;;5.42;98.98;102445.17;105331;1271;72352;-71
2022/03/27 04:24:12;;;;;;;13.40;7.10;;;;;;;5.43;99.10;102442.52;105225;1271;62646;-73
2022/03/27 04:26:40;;;;;;;22.80;9.60;;;;;;;5.42;98.92;102436.01;105302;1271;60827;-71
2022/03/27 04:29:10;;;;;;;16.70;9.80;;;;;;;5.43;98.91;102436.31;105358;1271;73405;-74
2022/03/27 04:31:40;;;;;;;14.80;7.50;;;;;;;5.44;98.96;102440.67;105640;1271;71146;-73
2022/03/27 04:34:08;;;;;;;17.40;8.30;;;;;;;5.44;98.84;102435.06;105287;1271;72995;-75
2022/03/27 04:36:35;;;;;;;16.80;8.70;;;;;;;5.43;98.79;102434.05;105413;1271;61661;-72
2022/03/27 04:39:04;;;;;;;16.50;7.90;;;;;;;5.43;98.82;102436.67;105452;1271;60443;-72
2022/03/27 04:41:30;;;;;;;17.70;8.40;;;;;;;5.42;98.88;102436.42;105140;1271;73917;-71
2022/03/27 04:43:57;;;;;;;16.50;8.30;;;;;;;5.43;98.83;102438.64;105461;1271;71034;-72
2022/03/27 04:46:23;;;;;;;18.10;9.10;;;;;;;5.43;98.90;102442.48;105370;1271;73109;-74
2022/03/27 04:48:53;;;;;;;16.70;7.70;;;;;;;5.43;99.08;102446.36;105342;1271;61294;-74
2022/03/27 04:51:21;;;;;;;13.50;7.50;;;;;;;5.43;99.12;102444.96;105444;1271;60651;-73
2022/03/27 04:53:49;;;;;;;18.00;9.10;;;;;;;5.43;99.28;102447.55;105352;1271;75641;-75
2022/03/27 04:56:17;;;;;;;14.10;6.70;;;;;;;5.44;99.25;102453.45;105113;1271;72219;-73
2022/03/27 04:58:44;;;;;;;15.90;7.50;;;;;;;5.44;99.30;102452.73;105411;1271;72902;-71
2022/03/27 05:01:11;;;;;;;15.00;7.20;;;;;;;5.46;99.40;102452.98;105323;1271;62432;-73
2022/03/27 05:03:38;;;;;;;13.70;6.70;;;;;;;5.47;99.29;102453.27;105494;1271;60526;-72
2022/03/27 05:06:07;;;;;;;14.70;7.60;;;;;;;5.47;99.63;102447.33;105341;1271;73995;-73
2022/03/27 05:08:35;;;;;;;17.50;8.60;;;;;;;5.46;99.59;102449.83;105410;1271;70388;-74
2022/03/27 05:11:02;;;;;;;19.30;8.80;;;;;;;5.45;99.75;102453.08;105278;1271;72938;-71
2022/03/27 05:13:33;;;;;;;18.80;10.00;;;;;;;5.44;99.71;102445.06;105310;1271;61868;-75
2022/03/27 05:15:59;;;;;;;17.50;9.60;;;;;;;5.44;99.67;102445.41;105246;1271;60539;-72
2022/03/27 05:18:26;;;;;;;19.00;10.10;;;;;;;5.44;99.68;102438.89;105441;1271;61711;-74
2022/03/27 05:20:52;;;;;;;17.50;9.10;;;;;;;5.44;99.53;102437.64;105467;1271;72801;-72
2022/03/27 05:23:19;;;;;;;16.80;9.40;;;;;;;5.45;99.59;102438.82;105367;1270;73960;-73
2022/03/27 05:25:48;;;;;;;18.50;10.00;;;;;;;5.47;99.73;102438.02;105374;1271;60468;-73
2022/03/27 05:28:19;;;;;;;14.90;7.60;;;;;;;5.48;99.47;102433.89;105265;1271;60855;-74
2022/03/27 05:30:46;;;;;;;16.40;8.20;;;;;;;5.49;99.37;102431.17;105096;1271;75205;-72
2022/03/27 05:33:14;;;;;;;17.30;8.60;;;;;;;5.53;99.37;102430.95;105367;1271;72398;-73
2022/03/27 05:35:41;;;;;;;22.10;10.60;;;;;;;5.56;99.27;102429.15;105233;1271;73809;-72
2022/03/27 05:38:08;;;;;;;17.50;9.10;;;;;;;5.60;99.27;102429.10;105452;1271;61482;-71
2022/03/27 05:40:35;;;;;;;18.30;10.30;;;;;;;5.63;99.03;102428.36;105521;1271;60514;-71
2022/03/27 05:43:02;;;;;;;15.60;8.60;;;;;;;5.66;99.02;102430.98;105366;1271;74050;-73
2022/03/27 05:45:28;;;;;;;20.00;9.50;;;;;;;5.68;98.69;102435.04;105205;1271;71927;-72
2022/03/27 05:47:55;;;;;;;16.80;9.40;;;;;;;5.70;98.57;102437.69;105373;1271;73033;-71
2022/03/27 05:50:23;;;;;;;22.00;10.50;;;;;;;5.72;98.40;102440.42;105311;1271;61453;-72
2022/03/27 05:52:52;;;;;;;15.20;7.90;;;;;;;5.75;98.19;102446.04;105194;1271;61913;-70
2022/03/27 05:55:21;;;;;;;20.90;10.20;;;;;;;5.77;98.08;102449.62;105310;1271;73137;-74
2022/03/27 05:57:48;;;;;;;21.10;10.40;;;;;;;5.79;98.05;102453.14;105558;1271;70375;-71
2022/03/27 06:00:20;;;;;;;20.80;9.60;;;;;;;5.83;97.96;102460.64;105395;1270;72993;-73
2022/03/27 06:02:50;;;;;;;17.80;8.50;;;;;;;5.86;98.00;102462.35;105380;1271;61440;-71
2022/03/27 06:05:22;;;;;;;19.20;9.90;;;;;;;5.87;97.68;102457.55;105447;1271;60691;-72
2022/03/27 06:07:52;;;;;;;26.00;11.90;;;;;;;5.91;97.68;102463.21;105354;1271;74245;-73
2022/03/27 06:10:42;;;;;;;17.30;9.20;;;;;;;5.96;97.54;102459.42;105553;1271;74182;-72
2022/03/27 06:13:12;;;;;;;16.40;8.70;;;;;;;5.99;97.28;102464.50;105413;1271;72902;-73
2022/03/27 06:15:41;;;;;;;17.70;9.70;;;;;;;6.01;97.21;102466.46;105332;1271;62307;-71
2022/03/27 06:18:12;;;;;;;18.00;9.30;;;;;;;6.07;97.33;102469.60;105377;1271;61697;-73
2022/03/27 06:20:40;;;;;;;16.60;9.60;;;;;;;6.12;96.93;102472.07;105576;1271;74210;-72
2022/03/27 06:23:07;;;;;;;17.00;9.20;;;;;;;6.14;96.69;102469.66;105402;1271;71964;-72
2022/03/27 06:25:43;;;;;;;15.30;8.20;;;;;;;6.17;96.63;102469.14;105684;1271;74480;-71
2022/03/27 06:28:12;;;;;;;17.40;9.50;;;;;;;6.18;96.48;102470.81;105519;1271;61780;-72
2022/03/27 06:30:44;;;;;;;23.70;11.40;;;;;;;6.20;96.30;102470.48;105162;1271;61616;-73
2022/03/27 06:33:13;;;;;;;15.00;8.20;;;;;;;6.26;96.35;102472.40;105481;1271;74772;-74
2022/03/27 06:35:42;;;;;;;23.10;11.60;;;;;;;6.28;96.07;102475.43;105633;1271;69224;-72
2022/03/27 06:38:14;;;;;;;17.70;10.20;;;;;;;6.32;95.98;102473.92;105370;1271;71576;-75
2022/03/27 06:40:41;;;;;;;16.90;9.60;;;;;;;6.35;95.74;102480.58;105270;1273;62307;-73
2022/03/27 06:43:07;;;;;;;16.10;7.80;;;;;;;6.38;95.72;102476.16;105408;1274;61002;-73
2022/03/27 06:45:34;;;;;;;16.30;8.80;;;;;;;6.40;95.45;102479.69;107127;1273;59170;-73
2022/03/27 06:48:02;;;;;;;18.60;9.10;;;;;;;6.42;95.30;102477.26;105420;1271;71604;-72
2022/03/27 06:50:29;;;;;;;20.40;9.30;;;;;;;6.45;95.13;102479.37;105419;1271;74087;-74
2022/03/27 06:52:58;;;;;;;15.40;8.30;;;;;;;6.48;94.92;102476.16;107245;1271;61388;-74
2022/03/27 06:55:27;;;;;;;16.20;8.90;;;;;;;6.52;95.19;102476.21;107534;1271;60668;-72
2022/03/27 06:57:53;;;;;;;25.60;13.10;;;;;;;6.58;95.05;102479.86;105457;1271;75256;-73
2022/03/27 07:03:14;;;;;;;22.70;12.20;;;;;;;6.68;94.56;102483.04;105354;1271;72663;-74
2022/03/27 07:05:43;;;;;;;21.00;9.50;;;;;;;6.72;94.24;102486.11;105669;1271;61415;-70
2022/03/27 07:08:12;;;;;;;20.30;10.70;;;;;;;6.76;94.27;102486.40;105467;1271;62178;-72
2022/03/27 07:10:41;;;;;;;31.80;13.60;;;;;;;6.79;94.04;102487.23;105974;1271;75263;-73
2022/03/27 07:13:10;;;;;;;21.80;12.10;;;;;;;6.83;94.02;102488.67;105647;1274;71410;-72
2022/03/27 07:15:38;;;;;;;18.40;8.90;;;;;;;6.89;94.03;102490.75;106120;1271;73968;-72
2022/03/27 07:18:06;;;;;;;20.00;9.90;;;;;;;6.93;93.51;102489.58;105652;1271;61494;-73
2022/03/27 07:20:41;;;;;;;23.70;12.00;;;;;;;6.97;93.27;102484.80;105499;1272;60647;-73
2022/03/27 07:23:09;;;;;;;20.90;11.80;;;;;;;7.01;93.34;102488.90;105833;1273;73910;-72
2022/03/27 07:25:41;;;;;;;22.80;10.90;;;;;;;7.06;93.23;102490.30;105379;1271;71352;-72
2022/03/27 07:28:10;;;;;;;24.00;11.90;;;;;;;7.11;93.09;102497.47;105340;1271;73393;-72
2022/03/27 07:30:38;;;;;;;18.40;9.00;;;;;;;7.16;92.96;102499.07;105419;1271;61453;-75
2022/03/27 07:33:05;;;;;;;26.10;10.30;;;;;;;7.21;92.55;102499.98;105363;1272;60867;-72
2022/03/27 07:35:32;;;;;;;21.30;11.30;;;;;;;7.25;92.29;102496.34;105380;1272;75219;-73
2022/03/27 07:37:59;;;;;;;17.50;9.50;;;;;;;7.30;92.44;102490.88;105403;1273;71412;-71
2022/03/27 07:40:27;;;;;;;20.30;11.40;;;;;;;7.37;92.07;102484.73;105321;1274;73912;-72
2022/03/27 07:42:55;;;;;;;19.90;11.10;;;;;;;7.42;91.48;102487.21;105377;1272;63057;-72
2022/03/27 07:45:24;;;;;;;20.70;10.00;;;;;;;7.46;91.44;102490.27;106116;1271;60427;-74
2022/03/27 07:47:53;;;;;;;22.10;10.40;;;;;;;7.46;90.75;102492.38;105766;1271;75140;-72
2022/03/27 07:50:20;;;;;;;23.80;10.30;;;;;;;7.47;90.84;102498.48;108430;1271;71352;-73
2022/03/27 07:52:47;;;;;;;31.00;13.30;;;;;;;7.49;90.83;102500.63;106279;1271;74245;-72
2022/03/27 07:55:17;;;;;;;29.70;13.70;;;;;;;7.50;90.63;102498.27;105345;1272;61605;-72
2022/03/27 07:57:43;;;;;;;33.60;13.60;;;;;;;7.54;90.82;102504.31;105383;1271;60779;-72
2022/03/27 08:00:12;;;;;;;31.40;13.70;;;;;;;7.58;90.54;102505.58;105328;1272;74157;-73
2022/03/27 08:02:41;;;;;;;26.10;12.90;;;;;;;7.62;90.41;102502.16;105223;1274;72431;-72
2022/03/27 08:05:09;;;;;;;31.30;11.80;;;;;;;7.64;90.48;102502.15;105663;1274;73933;-72
2022/03/27 08:07:36;;;;;;;29.10;12.20;;;;;;;7.67;90.25;102498.42;105677;1271;62437;-73
2022/03/27 08:10:15;;;;;;;32.50;13.00;;;;;;;7.72;90.00;102498.73;105441;1273;60598;-73
2022/03/27 08:12:43;;;;;;;44.00;16.00;;;;;;;7.78;89.73;102490.92;105363;1271;74117;-74
2022/03/27 08:15:10;;;;;;;41.30;16.40;;;;;;;7.84;89.34;102494.23;105367;1271;71441;-73
2022/03/27 08:17:36;;;;;;;47.00;17.10;;;;;;;7.91;89.39;102489.30;105360;1272;74010;-73
2022/03/27 08:20:05;;;;;;;41.30;16.60;;;;;;;8.00;89.16;102487.73;105430;1274;61674;-74
2022/03/27 08:22:33;;;;;;;40.20;15.90;;;;;;;8.08;88.89;102486.95;106301;1274;62249;-74
2022/03/27 08:25:00;;;;;;;61.90;23.70;;;;;;;8.18;88.05;102485.02;106683;1271;73948;-74
2022/03/27 08:27:27;;;;;;;49.50;18.10;;;;;;;8.25;87.68;102490.83;105309;1271;71442;-74
2022/03/27 08:29:54;;;;;;;56.00;21.90;;;;;;;8.32;87.21;102492.39;105322;1274;72974;-69
2022/03/27 08:32:20;;;;;;;44.90;17.20;;;;;;;8.41;86.82;102494.73;105256;1271;61989;-68
2022/03/27 08:34:48;;;;;;;47.30;19.50;;;;;;;8.49;86.02;102495.69;105385;1271;62036;-70
2022/03/27 08:37:17;;;;;;;42.70;18.20;;;;;;;8.55;85.48;102498.80;105350;1274;73534;-69
2022/03/27 08:39:45;;;;;;;41.50;16.80;;;;;;;8.60;85.31;102504.41;105277;1271;71351;-68
2022/03/27 08:42:16;;;;;;;47.20;20.00;;;;;;;8.64;85.01;102511.65;108380;1271;72902;-70
2022/03/27 08:44:44;;;;;;;45.40;20.60;;;;;;;8.71;85.03;102516.13;108140;1274;63720;-70
2022/03/27 08:47:23;;;;;;;53.90;23.90;;;;;;;8.76;84.81;102518.52;105342;1272;60454;-68
2022/03/27 08:50:00;;;;;;;54.50;20.70;;;;;;;8.89;85.36;102519.10;105367;1272;74119;-69
2022/03/27 08:52:40;;;;;;;63.70;25.70;;;;;;;9.00;84.32;102521.95;105588;1271;72819;-68
2022/03/27 08:55:15;;;;;;;61.70;24.40;;;;;;;9.04;83.58;102521.16;105319;1273;73182;-69
2022/03/27 08:58:00;;;;;;;48.80;22.10;;;;;;;9.06;83.09;102519.38;105270;1271;62237;-67
2022/03/27 09:00:31;;;;;;;58.00;24.10;;;;;;;9.12;82.76;102516.27;105315;1274;60410;-69
2022/03/27 09:03:00;;;;;;;65.00;25.50;;;;;;;9.15;82.32;102512.83;105368;1271;74088;-69
2022/03/27 09:05:27;;;;;;;62.80;27.10;;;;;;;9.18;82.07;102514.73;107055;1271;71150;-69
2022/03/27 09:07:56;;;;;;;52.60;22.90;;;;;;;9.22;81.89;102513.21;106511;1271;74312;-69
2022/03/27 09:10:29;;;;;;;56.20;24.40;;;;;;;9.24;81.43;102513.58;108092;1271;62082;-71
2022/03/27 09:12:57;;;;;;;68.40;28.50;;;;;;;9.26;81.40;102511.80;106004;1273;60587;-68
2022/03/27 09:15:23;;;;;;;55.10;23.10;;;;;;;9.33;81.62;102513.76;107183;1271;74253;-69
2022/03/27 09:17:54;;;;;;;57.60;23.70;;;;;;;9.41;81.05;102511.17;105384;1274;72862;-69
2022/03/27 09:20:55;;;;;;;64.70;28.10;;;;;;;9.49;81.28;102516.83;106458;1271;72977;-69
2022/03/27 09:23:26;;;;;;;57.40;23.50;;;;;;;9.60;80.96;102512.10;105388;1272;63538;-69
2022/03/27 09:25:59;;;;;;;66.10;30.30;;;;;;;9.66;80.44;102506.69;105683;1271;60626;-69
2022/03/27 09:28:30;;;;;;;50.50;22.20;;;;;;;9.74;80.22;102507.42;105386;1271;73477;-68
2022/03/27 09:31:00;;;;;;;52.70;24.20;;;;;;;9.77;79.30;102511.23;105388;1271;72339;-68
2022/03/27 09:33:35;;;;;;;53.80;24.10;;;;;;;9.76;78.92;102514.66;105694;1272;73951;-69
2022/03/27 09:36:12;;;;;;;54.40;25.10;;;;;;;9.65;78.35;102515.38;105456;1271;62929;-68
2022/03/27 09:38:40;;;;;;;59.20;24.30;;;;;;;9.54;78.58;102514.01;106228;1271;60340;-69
2022/03/27 09:41:27;;;;;;;65.40;29.10;;;;;;;9.47;78.50;102513.69;107565;1271;75395;-70
2022/03/27 09:44:08;;;;;;;59.00;27.10;;;;;;;9.53;78.70;102507.39;105490;1272;72592;-68
2022/03/27 09:46:52;;;;;;;59.20;27.20;;;;;;;9.62;79.08;102500.11;106040;1271;73486;-69
2022/03/27 09:49:22;;;;;;;43.30;21.10;;;;;;;9.82;78.70;102497.75;105439;1272;61650;-70
2022/03/27 09:51:53;;;;;;;50.60;27.10;;;;;;;10.00;78.58;102496.79;106616;1271;60668;-68
2022/03/27 09:54:21;;;;;;;46.70;20.60;;;;;;;10.14;77.04;102495.48;105689;1272;74097;-68
2022/03/27 09:56:49;;;;;;;42.20;21.80;;;;;;;10.15;76.06;102495.38;105449;1271;71351;-69
2022/03/27 09:59:30;;;;;;;38.20;19.90;;;;;;;10.18;75.97;102493.14;105356;1272;74021;-71
2022/03/27 10:02:23;;;;;;;52.00;24.50;;;;;;;10.29;76.25;102496.77;108297;1271;63763;-70
2022/03/27 10:05:02;;;;;;;40.40;20.70;;;;;;;10.44;75.48;102492.78;108419;1271;61991;-70
2022/03/27 10:07:35;;;;;;;40.50;21.10;;;;;;;10.60;75.88;102486.50;108097;1271;74202;-72
2022/03/27 10:10:02;;;;;;;40.40;19.40;;;;;;;10.88;75.52;102481.08;108450;1271;71239;-70
2022/03/27 10:12:31;;;;;;;35.30;18.00;;;;;;;11.15;74.70;102482.52;106528;1271;72827;-69
2022/03/27 10:15:00;;;;;;;31.00;14.60;;;;;;;11.36;72.99;102474.94;106147;1271;63143;-70
2022/03/27 10:17:28;;;;;;;22.10;13.00;;;;;;;11.44;71.33;102472.49;108497;1271;60802;-69
2022/03/27 10:20:22;;;;;;;27.70;16.60;;;;;;;11.40;69.96;102474.36;106262;1274;75425;-69
2022/03/27 10:22:56;;;;;;;37.20;19.40;;;;;;;11.58;70.60;102467.14;105313;1273;71022;-68
2022/03/27 10:25:33;;;;;;;36.10;20.00;;;;;;;11.77;69.38;102463.48;105413;1271;72908;-71
2022/03/27 10:28:01;;;;;;;23.70;13.90;;;;;;;11.96;68.96;102460.59;105448;1272;60456;-71
2022/03/27 10:30:29;;;;;;;23.10;13.50;;;;;;;12.00;67.56;102458.55;105847;1271;63087;-72
2022/03/27 10:32:56;;;;;;;17.70;10.70;;;;;;;12.08;67.76;102457.66;105411;1272;73831;-72
2022/03/27 10:35:32;;;;;;;24.50;13.30;;;;;;;12.20;67.91;102459.92;105665;1274;71913;-70
2022/03/27 10:38:24;;;;;;;25.00;13.90;;;;;;;12.31;66.69;102458.92;106407;1271;74089;-70
2022/03/27 10:41:00;;;;;;;21.30;11.90;;;;;;;12.31;66.58;102457.71;105477;1271;60778;-71
2022/03/27 10:43:45;;;;;;;20.40;11.00;;;;;;;12.23;66.26;102461.60;107209;1271;60639;-71
2022/03/27 10:46:21;;;;;;;20.40;11.30;;;;;;;12.08;65.93;102464.45;105511;1272;74131;-69
2022/03/27 10:48:50;;;;;;;18.40;11.10;;;;;;;11.98;66.83;102465.21;105434;1274;71608;-69
2022/03/27 10:51:29;;;;;;;18.90;9.80;;;;;;;11.97;67.20;102466.30;105732;1272;73038;-71
2022/03/27 10:54:18;;;;;;;15.50;8.90;;;;;;;12.06;66.53;102458.04;105244;1271;60438;-70
2022/03/27 10:56:50;;;;;;;18.40;11.10;;;;;;;12.29;66.97;102449.58;105405;1274;61736;-68
2022/03/27 10:59:24;;;;;;;26.80;14.90;;;;;;;12.54;66.46;102447.02;105130;1274;75223;-71
2022/03/27 11:01:58;;;;;;;19.00;11.60;;;;;;;12.74;65.17;102443.56;105244;1271;73699;-71
2022/03/27 11:04:34;;;;;;;21.20;11.50;;;;;;;12.92;65.18;102442.80;105425;1271;73225;-71
2022/03/27 11:07:27;;;;;;;25.90;15.60;;;;;;;13.16;64.78;102435.25;105183;1271;61685;-70
2022/03/27 11:09:54;;;;;;;34.10;19.20;;;;;;;13.41;63.63;102429.92;105276;1273;61891;-71
2022/03/27 11:12:31;;;;;;;33.00;19.10;;;;;;;13.43;62.22;102437.55;105281;1274;74093;-70
2022/03/27 11:15:03;;;;;;;28.80;17.30;;;;;;;13.37;62.27;102434.31;105553;1271;71720;-70
2022/03/27 11:17:31;;;;;;;38.40;21.90;;;;;;;13.27;62.04;102439.83;108319;1271;74184;-71
2022/03/27 11:19:59;;;;;;;26.60;15.60;;;;;;;13.34;63.54;102436.47;108431;1271;60429;-70
2022/03/27 11:22:54;;;;;;;25.00;15.50;;;;;;;13.50;63.82;102429.65;107344;1271;60464;-70
2022/03/27 11:25:36;;;;;;;;;;;;;;;13.58;62.53;102426.52;105538;1271;75363;-74
2022/03/27 11:28:02;;;;;;;23.90;15.60;;;;;;;13.64;62.58;102423.24;105385;1274;71519;-70
2022/03/27 11:30:30;;;;;;;31.60;15.70;;;;;;;13.77;62.17;102412.90;105401;1273;60488;-68